sensor_id;sensor_type;location;lat;lon;timestamp;P1;durP1;ratioP1;P2;durP2;ratioP2
25409;SDS011;13339;50.840;4.346;2023-04-24T00:02:11;26.70;;;13.40;;
25409;SDS011;13339;50.840;4.346;2023-04-24T00:04:37;30.10;;;13.40;;
25409;SDS011;13339;50.840;4.346;2023-04-24T00:07:06;20.87;;;12.57;;
25409;SDS011;13339;50.840;4.346;2023-04-24T00:09:32;25.70;;;12.67;;
25409;SDS011;13339;50.840;4.346;2023-04-24T00:11:58;25.60;;;13.10;;
25409;SDS011;13339;50.840;4.346;2023-04-24T00:14:24;25.30;;;14.20;;
25409;SDS011;13339;50.840;4.346;2023-04-24T00:16:50;31.03;;;14.53;;
25409;SDS011;13339;50.840;4.346;2023-04-24T00:19:16;24.70;;;13.90;;
25409;SDS011;13339;50.840;4.346;2023-04-24T00:21:43;25.33;;;13.50;;
25409;SDS011;13339;50.840;4.346;2023-04-24T00:24:09;29.30;;;14.37;;
25409;SDS011;13339;50.840;4.346;2023-04-24T00:26:34;30.77;;;15.10;;
25409;SDS011;13339;50.840;4.346;2023-04-24T00:29:00;29.10;;;14.83;;
25409;SDS011;13339;50.840;4.346;2023-04-24T00:31:26;25.97;;;14.20;;
25409;SDS011;13339;50.840;4.346;2023-04-24T00:33:51;25.83;;;13.47;;
25409;SDS011;13339;50.840;4.346;2023-04-24T00:36:17;28.23;;;15.17;;
25409;SDS011;13339;50.840;4.346;2023-04-24T00:38:45;28.57;;;14.77;;
25409;SDS011;13339;50.840;4.346;2023-04-24T00:41:11;32.13;;;14.43;;
25409;SDS011;13339;50.840;4.346;2023-04-24T00:43:37;27.27;;;14.43;;
25409;SDS011;13339;50.840;4.346;2023-04-24T00:46:03;23.30;;;14.13;;
25409;SDS011;13339;50.840;4.346;2023-04-24T00:48:28;25.17;;;14.23;;
25409;SDS011;13339;50.840;4.346;2023-04-24T00:50:55;27.40;;;14.50;;
25409;SDS011;13339;50.840;4.346;2023-04-24T00:53:22;22.60;;;13.83;;
25409;SDS011;13339;50.840;4.346;2023-04-24T00:55:47;20.60;;;12.97;;
25409;SDS011;13339;50.840;4.346;2023-04-24T00:58:13;25.90;;;14.87;;
25409;SDS011;13339;50.840;4.346;2023-04-24T01:00:39;22.70;;;14.33;;
25409;SDS011;13339;50.840;4.346;2023-04-24T01:03:05;24.23;;;14.27;;
25409;SDS011;13339;50.840;4.346;2023-04-24T01:05:32;30.07;;;14.43;;
25409;SDS011;13339;50.840;4.346;2023-04-24T01:07:58;29.13;;;14.87;;
25409;SDS011;13339;50.840;4.346;2023-04-24T01:10:24;27.10;;;14.23;;
25409;SDS011;13339;50.840;4.346;2023-04-24T01:12:52;31.30;;;14.37;;
25409;SDS011;13339;50.840;4.346;2023-04-24T01:15:18;25.43;;;14.47;;
25409;SDS011;13339;50.840;4.346;2023-04-24T01:17:44;23.20;;;14.50;;
25409;SDS011;13339;50.840;4.346;2023-04-24T01:20:10;24.43;;;13.87;;
25409;SDS011;13339;50.840;4.346;2023-04-24T01:22:35;19.33;;;13.33;;
25409;SDS011;13339;50.840;4.346;2023-04-24T01:25:01;23.47;;;13.57;;
25409;SDS011;13339;50.840;4.346;2023-04-24T01:27:28;26.07;;;13.47;;
25409;SDS011;13339;50.840;4.346;2023-04-24T01:29:54;21.67;;;14.00;;
25409;SDS011;13339;50.840;4.346;2023-04-24T01:32:19;23.03;;;13.47;;
25409;SDS011;13339;50.840;4.346;2023-04-24T01:34:45;26.70;;;12.80;;
25409;SDS011;13339;50.840;4.346;2023-04-24T01:37:12;22.77;;;13.27;;
25409;SDS011;13339;50.840;4.346;2023-04-24T01:39:37;19.07;;;13.23;;
25409;SDS011;13339;50.840;4.346;2023-04-24T01:42:04;17.63;;;12.30;;
25409;SDS011;13339;50.840;4.346;2023-04-24T01:44:30;18.80;;;12.30;;
25409;SDS011;13339;50.840;4.346;2023-04-24T01:46:56;16.93;;;11.40;;
25409;SDS011;13339;50.840;4.346;2023-04-24T01:49:23;21.13;;;12.23;;
25409;SDS011;13339;50.840;4.346;2023-04-24T01:51:49;23.80;;;12.83;;
25409;SDS011;13339;50.840;4.346;2023-04-24T01:54:14;19.40;;;12.87;;
25409;SDS011;13339;50.840;4.346;2023-04-24T01:56:40;21.77;;;12.67;;
25409;SDS011;13339;50.840;4.346;2023-04-24T01:59:10;23.33;;;13.10;;
25409;SDS011;13339;50.840;4.346;2023-04-24T02:01:36;20.40;;;12.20;;
25409;SDS011;13339;50.840;4.346;2023-04-24T02:04:03;18.17;;;13.17;;
25409;SDS011;13339;50.840;4.346;2023-04-24T02:06:29;18.47;;;12.83;;
25409;SDS011;13339;50.840;4.346;2023-04-24T02:08:59;22.83;;;14.00;;
25409;SDS011;13339;50.840;4.346;2023-04-24T02:11:25;23.30;;;13.27;;
25409;SDS011;13339;50.840;4.346;2023-04-24T02:13:51;23.23;;;13.80;;
25409;SDS011;13339;50.840;4.346;2023-04-24T02:16:17;25.23;;;15.63;;
25409;SDS011;13339;50.840;4.346;2023-04-24T02:18:43;25.50;;;14.87;;
25409;SDS011;13339;50.840;4.346;2023-04-24T02:21:09;25.20;;;15.40;;
25409;SDS011;13339;50.840;4.346;2023-04-24T02:23:35;25.73;;;15.53;;
25409;SDS011;13339;50.840;4.346;2023-04-24T02:26:01;25.03;;;15.33;;
25409;SDS011;13339;50.840;4.346;2023-04-24T02:28:27;25.07;;;14.63;;
25409;SDS011;13339;50.840;4.346;2023-04-24T02:30:53;23.93;;;15.00;;
25409;SDS011;13339;50.840;4.346;2023-04-24T02:33:18;26.37;;;14.90;;
25409;SDS011;13339;50.840;4.346;2023-04-24T02:35:44;21.13;;;14.40;;
25409;SDS011;13339;50.840;4.346;2023-04-24T02:38:10;16.53;;;14.07;;
25409;SDS011;13339;50.840;4.346;2023-04-24T02:40:36;22.37;;;14.37;;
25409;SDS011;13339;50.840;4.346;2023-04-24T02:43:01;25.57;;;14.87;;
25409;SDS011;13339;50.840;4.346;2023-04-24T02:45:27;21.03;;;14.07;;
25409;SDS011;13339;50.840;4.346;2023-04-24T02:47:53;18.17;;;13.07;;
25409;SDS011;13339;50.840;4.346;2023-04-24T02:50:18;22.93;;;13.13;;
25409;SDS011;13339;50.840;4.346;2023-04-24T02:52:44;24.60;;;13.43;;
25409;SDS011;13339;50.840;4.346;2023-04-24T02:55:10;21.37;;;13.90;;
25409;SDS011;13339;50.840;4.346;2023-04-24T02:57:36;24.07;;;13.40;;
25409;SDS011;13339;50.840;4.346;2023-04-24T03:00:01;21.67;;;13.50;;
25409;SDS011;13339;50.840;4.346;2023-04-24T03:02:28;18.67;;;12.87;;
25409;SDS011;13339;50.840;4.346;2023-04-24T03:04:53;23.57;;;13.30;;
25409;SDS011;13339;50.840;4.346;2023-04-24T03:07:20;19.47;;;12.60;;
25409;SDS011;13339;50.840;4.346;2023-04-24T03:09:45;18.50;;;11.90;;
25409;SDS011;13339;50.840;4.346;2023-04-24T03:12:12;20.77;;;12.30;;
25409;SDS011;13339;50.840;4.346;2023-04-24T03:14:38;18.30;;;11.47;;
25409;SDS011;13339;50.840;4.346;2023-04-24T03:17:03;17.17;;;11.10;;
25409;SDS011;13339;50.840;4.346;2023-04-24T03:19:29;16.03;;;10.63;;
25409;SDS011;13339;50.840;4.346;2023-04-24T03:21:55;15.43;;;10.30;;
25409;SDS011;13339;50.840;4.346;2023-04-24T03:24:20;16.20;;;10.57;;
25409;SDS011;13339;50.840;4.346;2023-04-24T03:26:46;16.60;;;10.77;;
25409;SDS011;13339;50.840;4.346;2023-04-24T03:29:11;17.40;;;10.27;;
25409;SDS011;13339;50.840;4.346;2023-04-24T03:31:37;14.93;;;10.10;;
25409;SDS011;13339;50.840;4.346;2023-04-24T03:34:03;16.73;;;10.50;;
25409;SDS011;13339;50.840;4.346;2023-04-24T03:36:28;15.67;;;10.33;;
25409;SDS011;13339;50.840;4.346;2023-04-24T03:38:55;16.63;;;10.00;;
25409;SDS011;13339;50.840;4.346;2023-04-24T03:41:20;20.93;;;10.37;;
25409;SDS011;13339;50.840;4.346;2023-04-24T03:43:47;19.50;;;11.07;;
25409;SDS011;13339;50.840;4.346;2023-04-24T03:46:13;18.40;;;9.83;;
25409;SDS011;13339;50.840;4.346;2023-04-24T03:48:38;14.97;;;10.13;;
25409;SDS011;13339;50.840;4.346;2023-04-24T03:51:04;14.33;;;9.03;;
25409;SDS011;13339;50.840;4.346;2023-04-24T03:53:30;11.70;;;8.17;;
25409;SDS011;13339;50.840;4.346;2023-04-24T03:55:55;15.17;;;8.70;;
25409;SDS011;13339;50.840;4.346;2023-04-24T03:58:21;11.47;;;7.87;;
25409;SDS011;13339;50.840;4.346;2023-04-24T04:00:47;12.33;;;8.27;;
25409;SDS011;13339;50.840;4.346;2023-04-24T04:03:13;10.37;;;7.83;;
25409;SDS011;13339;50.840;4.346;2023-04-24T04:05:39;12.00;;;7.50;;
25409;SDS011;13339;50.840;4.346;2023-04-24T04:08:05;9.97;;;7.63;;
25409;SDS011;13339;50.840;4.346;2023-04-24T04:10:31;11.27;;;9.70;;
25409;SDS011;13339;50.840;4.346;2023-04-24T04:12:56;11.60;;;7.73;;
25409;SDS011;13339;50.840;4.346;2023-04-24T04:15:22;10.97;;;6.93;;
25409;SDS011;13339;50.840;4.346;2023-04-24T04:17:48;11.17;;;6.40;;
25409;SDS011;13339;50.840;4.346;2023-04-24T04:20:13;9.43;;;6.80;;
25409;SDS011;13339;50.840;4.346;2023-04-24T04:22:39;7.63;;;6.53;;
25409;SDS011;13339;50.840;4.346;2023-04-24T04:25:05;8.00;;;6.40;;
25409;SDS011;13339;50.840;4.346;2023-04-24T04:27:31;9.37;;;6.57;;
25409;SDS011;13339;50.840;4.346;2023-04-24T04:29:58;8.77;;;5.97;;
25409;SDS011;13339;50.840;4.346;2023-04-24T04:32:27;8.77;;;6.47;;
25409;SDS011;13339;50.840;4.346;2023-04-24T04:34:53;8.33;;;5.43;;
25409;SDS011;13339;50.840;4.346;2023-04-24T04:37:19;8.07;;;5.97;;
25409;SDS011;13339;50.840;4.346;2023-04-24T04:39:44;7.57;;;5.73;;
25409;SDS011;13339;50.840;4.346;2023-04-24T04:42:10;9.47;;;6.97;;
25409;SDS011;13339;50.840;4.346;2023-04-24T04:44:35;8.90;;;7.30;;
25409;SDS011;13339;50.840;4.346;2023-04-24T04:47:01;10.27;;;6.37;;
25409;SDS011;13339;50.840;4.346;2023-04-24T04:49:30;9.53;;;6.77;;
25409;SDS011;13339;50.840;4.346;2023-04-24T04:51:56;13.17;;;8.27;;
25409;SDS011;13339;50.840;4.346;2023-04-24T04:54:22;10.60;;;7.80;;
25409;SDS011;13339;50.840;4.346;2023-04-24T04:56:49;13.53;;;9.03;;
25409;SDS011;13339;50.840;4.346;2023-04-24T04:59:15;14.53;;;9.50;;
25409;SDS011;13339;50.840;4.346;2023-04-24T05:01:41;14.83;;;9.27;;
25409;SDS011;13339;50.840;4.346;2023-04-24T05:04:07;16.23;;;9.73;;
25409;SDS011;13339;50.840;4.346;2023-04-24T05:06:33;17.00;;;10.37;;
25409;SDS011;13339;50.840;4.346;2023-04-24T05:08:58;14.77;;;9.53;;
25409;SDS011;13339;50.840;4.346;2023-04-24T05:11:24;16.10;;;10.43;;
25409;SDS011;13339;50.840;4.346;2023-04-24T05:13:49;21.10;;;10.60;;
25409;SDS011;13339;50.840;4.346;2023-04-24T05:16:15;15.40;;;10.00;;
25409;SDS011;13339;50.840;4.346;2023-04-24T05:18:41;17.10;;;11.70;;
25409;SDS011;13339;50.840;4.346;2023-04-24T05:21:06;21.10;;;10.87;;
25409;SDS011;13339;50.840;4.346;2023-04-24T05:23:32;17.00;;;11.33;;
25409;SDS011;13339;50.840;4.346;2023-04-24T05:25:57;15.00;;;10.97;;
25409;SDS011;13339;50.840;4.346;2023-04-24T05:28:23;20.97;;;10.90;;
25409;SDS011;13339;50.840;4.346;2023-04-24T05:30:53;21.83;;;11.13;;
25409;SDS011;13339;50.840;4.346;2023-04-24T05:33:19;15.90;;;11.13;;
25409;SDS011;13339;50.840;4.346;2023-04-24T05:35:45;18.90;;;10.73;;
25409;SDS011;13339;50.840;4.346;2023-04-24T05:38:12;17.10;;;11.70;;
25409;SDS011;13339;50.840;4.346;2023-04-24T05:40:38;20.10;;;11.37;;
25409;SDS011;13339;50.840;4.346;2023-04-24T05:43:04;17.77;;;10.87;;
25409;SDS011;13339;50.840;4.346;2023-04-24T05:45:30;24.27;;;12.87;;
25409;SDS011;13339;50.840;4.346;2023-04-24T05:47:55;19.30;;;11.40;;
25409;SDS011;13339;50.840;4.346;2023-04-24T05:50:21;17.13;;;12.63;;
25409;SDS011;13339;50.840;4.346;2023-04-24T05:52:47;18.27;;;11.37;;
25409;SDS011;13339;50.840;4.346;2023-04-24T05:55:12;20.33;;;11.20;;
25409;SDS011;13339;50.840;4.346;2023-04-24T05:57:38;20.37;;;11.87;;
25409;SDS011;13339;50.840;4.346;2023-04-24T06:00:04;17.83;;;11.13;;
25409;SDS011;13339;50.840;4.346;2023-04-24T06:02:30;20.00;;;12.37;;
25409;SDS011;13339;50.840;4.346;2023-04-24T06:04:58;21.13;;;11.83;;
25409;SDS011;13339;50.840;4.346;2023-04-24T06:07:24;21.13;;;12.13;;
25409;SDS011;13339;50.840;4.346;2023-04-24T06:09:51;22.67;;;12.50;;
25409;SDS011;13339;50.840;4.346;2023-04-24T06:12:17;17.67;;;11.67;;
25409;SDS011;13339;50.840;4.346;2023-04-24T06:14:43;22.40;;;11.93;;
25409;SDS011;13339;50.840;4.346;2023-04-24T06:17:08;19.77;;;11.40;;
25409;SDS011;13339;50.840;4.346;2023-04-24T06:19:34;20.33;;;12.37;;
25409;SDS011;13339;50.840;4.346;2023-04-24T06:22:00;17.97;;;12.57;;
25409;SDS011;13339;50.840;4.346;2023-04-24T06:24:28;17.30;;;12.20;;
25409;SDS011;13339;50.840;4.346;2023-04-24T06:26:54;26.10;;;12.63;;
25409;SDS011;13339;50.840;4.346;2023-04-24T06:29:21;21.23;;;12.23;;
25409;SDS011;13339;50.840;4.346;2023-04-24T06:31:47;20.87;;;12.93;;
25409;SDS011;13339;50.840;4.346;2023-04-24T06:34:13;18.27;;;12.60;;
25409;SDS011;13339;50.840;4.346;2023-04-24T06:36:38;27.60;;;14.30;;
25409;SDS011;13339;50.840;4.346;2023-04-24T06:39:04;26.03;;;13.77;;
25409;SDS011;13339;50.840;4.346;2023-04-24T06:41:30;27.47;;;14.10;;
25409;SDS011;13339;50.840;4.346;2023-04-24T06:43:56;23.83;;;14.37;;
25409;SDS011;13339;50.840;4.346;2023-04-24T06:46:21;28.07;;;14.50;;
25409;SDS011;13339;50.840;4.346;2023-04-24T06:48:48;25.70;;;15.50;;
25409;SDS011;13339;50.840;4.346;2023-04-24T06:51:15;27.87;;;16.10;;
25409;SDS011;13339;50.840;4.346;2023-04-24T06:53:43;29.63;;;15.90;;
25409;SDS011;13339;50.840;4.346;2023-04-24T06:56:08;28.13;;;15.87;;
25409;SDS011;13339;50.840;4.346;2023-04-24T06:58:34;29.00;;;15.00;;
25409;SDS011;13339;50.840;4.346;2023-04-24T07:01:00;27.30;;;15.63;;
25409;SDS011;13339;50.840;4.346;2023-04-24T07:03:25;28.40;;;15.57;;
25409;SDS011;13339;50.840;4.346;2023-04-24T07:05:51;30.90;;;15.53;;
25409;SDS011;13339;50.840;4.346;2023-04-24T07:08:18;25.13;;;15.63;;
25409;SDS011;13339;50.840;4.346;2023-04-24T07:10:45;31.73;;;15.30;;
25409;SDS011;13339;50.840;4.346;2023-04-24T07:13:11;25.63;;;15.23;;
25409;SDS011;13339;50.840;4.346;2023-04-24T07:15:36;28.03;;;15.20;;
25409;SDS011;13339;50.840;4.346;2023-04-24T07:18:02;21.67;;;13.57;;
25409;SDS011;13339;50.840;4.346;2023-04-24T07:20:27;22.80;;;12.77;;
25409;SDS011;13339;50.840;4.346;2023-04-24T07:22:53;28.63;;;13.77;;
25409;SDS011;13339;50.840;4.346;2023-04-24T07:25:19;31.07;;;13.27;;
25409;SDS011;13339;50.840;4.346;2023-04-24T07:27:45;21.20;;;12.27;;
25409;SDS011;13339;50.840;4.346;2023-04-24T07:30:11;23.23;;;12.57;;
25409;SDS011;13339;50.840;4.346;2023-04-24T07:32:36;23.20;;;12.53;;
25409;SDS011;13339;50.840;4.346;2023-04-24T07:35:02;22.17;;;12.10;;
25409;SDS011;13339;50.840;4.346;2023-04-24T07:37:28;20.67;;;11.37;;
25409;SDS011;13339;50.840;4.346;2023-04-24T07:39:54;23.33;;;11.77;;
25409;SDS011;13339;50.840;4.346;2023-04-24T07:42:20;22.07;;;12.07;;
25409;SDS011;13339;50.840;4.346;2023-04-24T07:44:45;29.30;;;13.57;;
25409;SDS011;13339;50.840;4.346;2023-04-24T07:47:12;27.30;;;13.73;;
25409;SDS011;13339;50.840;4.346;2023-04-24T07:49:41;29.03;;;14.07;;
25409;SDS011;13339;50.840;4.346;2023-04-24T07:52:06;25.83;;;13.37;;
25409;SDS011;13339;50.840;4.346;2023-04-24T07:54:32;26.57;;;12.83;;
25409;SDS011;13339;50.840;4.346;2023-04-24T07:56:58;22.07;;;12.27;;
25409;SDS011;13339;50.840;4.346;2023-04-24T07:59:23;23.90;;;11.57;;
25409;SDS011;13339;50.840;4.346;2023-04-24T08:01:49;26.50;;;13.00;;
25409;SDS011;13339;50.840;4.346;2023-04-24T08:04:15;22.13;;;12.53;;
25409;SDS011;13339;50.840;4.346;2023-04-24T08:06:40;26.40;;;11.63;;
25409;SDS011;13339;50.840;4.346;2023-04-24T08:09:06;22.07;;;11.30;;
25409;SDS011;13339;50.840;4.346;2023-04-24T08:11:32;21.80;;;11.30;;
25409;SDS011;13339;50.840;4.346;2023-04-24T08:13:58;19.97;;;10.13;;
25409;SDS011;13339;50.840;4.346;2023-04-24T08:16:23;21.90;;;11.27;;
25409;SDS011;13339;50.840;4.346;2023-04-24T08:18:49;18.90;;;9.23;;
25409;SDS011;13339;50.840;4.346;2023-04-24T08:21:15;23.27;;;10.07;;
25409;SDS011;13339;50.840;4.346;2023-04-24T08:23:44;15.00;;;8.17;;
25409;SDS011;13339;50.840;4.346;2023-04-24T08:26:11;20.80;;;9.13;;
25409;SDS011;13339;50.840;4.346;2023-04-24T08:28:37;20.97;;;9.10;;
25409;SDS011;13339;50.840;4.346;2023-04-24T08:31:03;19.37;;;8.70;;
25409;SDS011;13339;50.840;4.346;2023-04-24T08:33:29;21.60;;;8.60;;
25409;SDS011;13339;50.840;4.346;2023-04-24T08:36:00;21.53;;;8.77;;
25409;SDS011;13339;50.840;4.346;2023-04-24T08:38:27;17.47;;;8.03;;
25409;SDS011;13339;50.840;4.346;2023-04-24T08:40:53;28.30;;;8.37;;
25409;SDS011;13339;50.840;4.346;2023-04-24T08:43:24;19.03;;;7.83;;
25409;SDS011;13339;50.840;4.346;2023-04-24T08:45:51;19.07;;;8.37;;
25409;SDS011;13339;50.840;4.346;2023-04-24T08:48:18;14.43;;;7.60;;
25409;SDS011;13339;50.840;4.346;2023-04-24T08:50:44;14.90;;;7.47;;
25409;SDS011;13339;50.840;4.346;2023-04-24T08:53:10;17.03;;;7.20;;
25409;SDS011;13339;50.840;4.346;2023-04-24T08:55:37;17.60;;;7.30;;
25409;SDS011;13339;50.840;4.346;2023-04-24T08:58:03;15.83;;;7.70;;
25409;SDS011;13339;50.840;4.346;2023-04-24T09:00:29;11.57;;;6.63;;
25409;SDS011;13339;50.840;4.346;2023-04-24T09:02:56;13.77;;;6.73;;
25409;SDS011;13339;50.840;4.346;2023-04-24T09:05:22;16.93;;;6.77;;
25409;SDS011;13339;50.840;4.346;2023-04-24T09:07:54;17.63;;;6.63;;
25409;SDS011;13339;50.840;4.346;2023-04-24T09:10:24;16.97;;;7.47;;
25409;SDS011;13339;50.840;4.346;2023-04-24T09:12:51;14.63;;;6.17;;
25409;SDS011;13339;50.840;4.346;2023-04-24T09:15:18;11.43;;;5.30;;
25409;SDS011;13339;50.840;4.346;2023-04-24T09:17:45;10.00;;;5.63;;
25409;SDS011;13339;50.840;4.346;2023-04-24T09:20:12;11.80;;;6.23;;
25409;SDS011;13339;50.840;4.346;2023-04-24T09:22:37;12.03;;;5.17;;
25409;SDS011;13339;50.840;4.346;2023-04-24T09:25:04;12.20;;;5.07;;
25409;SDS011;13339;50.840;4.346;2023-04-24T09:27:34;12.77;;;5.67;;
25409;SDS011;13339;50.840;4.346;2023-04-24T09:30:00;9.23;;;5.60;;
25409;SDS011;13339;50.840;4.346;2023-04-24T09:32:27;12.43;;;5.67;;
25409;SDS011;13339;50.840;4.346;2023-04-24T09:35:13;17.83;;;6.20;;
25409;SDS011;13339;50.840;4.346;2023-04-24T09:37:44;12.80;;;5.93;;
25409;SDS011;13339;50.840;4.346;2023-04-24T09:42:44;11.63;;;5.27;;
25409;SDS011;13339;50.840;4.346;2023-04-24T09:45:21;9.90;;;5.13;;
25409;SDS011;13339;50.840;4.346;2023-04-24T09:47:52;10.47;;;5.00;;
25409;SDS011;13339;50.840;4.346;2023-04-24T09:50:21;10.63;;;5.40;;
25409;SDS011;13339;50.840;4.346;2023-04-24T09:52:55;12.57;;;4.87;;
25409;SDS011;13339;50.840;4.346;2023-04-24T09:55:22;12.47;;;5.23;;
25409;SDS011;13339;50.840;4.346;2023-04-24T09:57:48;10.27;;;5.30;;
25409;SDS011;13339;50.840;4.346;2023-04-24T10:00:21;13.77;;;5.53;;
25409;SDS011;13339;50.840;4.346;2023-04-24T10:03:00;13.03;;;6.10;;
25409;SDS011;13339;50.840;4.346;2023-04-24T10:05:28;12.27;;;4.90;;
25409;SDS011;13339;50.840;4.346;2023-04-24T10:07:56;11.57;;;5.10;;
25409;SDS011;13339;50.840;4.346;2023-04-24T10:10:23;9.20;;;4.70;;
25409;SDS011;13339;50.840;4.346;2023-04-24T10:12:49;10.63;;;4.40;;
25409;SDS011;13339;50.840;4.346;2023-04-24T10:15:16;9.10;;;4.80;;
25409;SDS011;13339;50.840;4.346;2023-04-24T10:17:46;13.87;;;5.27;;
25409;SDS011;13339;50.840;4.346;2023-04-24T10:20:17;8.67;;;4.87;;
25409;SDS011;13339;50.840;4.346;2023-04-24T10:22:46;13.67;;;6.07;;
25409;SDS011;13339;50.840;4.346;2023-04-24T10:25:15;10.87;;;6.07;;
25409;SDS011;13339;50.840;4.346;2023-04-24T10:27:43;12.87;;;5.60;;
25409;SDS011;13339;50.840;4.346;2023-04-24T10:30:11;11.47;;;6.33;;
25409;SDS011;13339;50.840;4.346;2023-04-24T10:32:37;12.27;;;5.70;;
25409;SDS011;13339;50.840;4.346;2023-04-24T10:35:03;9.67;;;6.00;;
25409;SDS011;13339;50.840;4.346;2023-04-24T10:37:33;15.20;;;6.20;;
25409;SDS011;13339;50.840;4.346;2023-04-24T10:40:02;12.97;;;5.60;;
25409;SDS011;13339;50.840;4.346;2023-04-24T10:42:28;12.97;;;6.00;;
25409;SDS011;13339;50.840;4.346;2023-04-24T10:44:54;10.57;;;5.83;;
25409;SDS011;13339;50.840;4.346;2023-04-24T10:47:20;10.47;;;5.53;;
25409;SDS011;13339;50.840;4.346;2023-04-24T10:49:46;16.83;;;6.30;;
25409;SDS011;13339;50.840;4.346;2023-04-24T10:52:16;15.70;;;6.03;;
25409;SDS011;13339;50.840;4.346;2023-04-24T10:54:46;13.87;;;6.03;;
25409;SDS011;13339;50.840;4.346;2023-04-24T10:59:47;13.47;;;6.27;;
25409;SDS011;13339;50.840;4.346;2023-04-24T11:02:37;9.73;;;5.67;;
25409;SDS011;13339;50.840;4.346;2023-04-24T11:05:05;16.97;;;7.50;;
25409;SDS011;13339;50.840;4.346;2023-04-24T11:10:37;11.13;;;6.20;;
25409;SDS011;13339;50.840;4.346;2023-04-24T11:13:04;9.00;;;6.20;;
25409;SDS011;13339;50.840;4.346;2023-04-24T11:15:29;15.27;;;6.77;;
25409;SDS011;13339;50.840;4.346;2023-04-24T11:17:55;9.13;;;6.37;;
25409;SDS011;13339;50.840;4.346;2023-04-24T11:20:23;10.80;;;5.97;;
25409;SDS011;13339;50.840;4.346;2023-04-24T11:22:52;12.10;;;6.73;;
25409;SDS011;13339;50.840;4.346;2023-04-24T11:25:19;10.73;;;6.10;;
25409;SDS011;13339;50.840;4.346;2023-04-24T11:27:47;10.93;;;6.37;;
25409;SDS011;13339;50.840;4.346;2023-04-24T11:30:18;9.17;;;6.33;;
25409;SDS011;13339;50.840;4.346;2023-04-24T11:32:47;11.27;;;6.13;;
25409;SDS011;13339;50.840;4.346;2023-04-24T11:35:16;13.87;;;8.33;;
25409;SDS011;13339;50.840;4.346;2023-04-24T11:37:49;21.13;;;14.43;;
25409;SDS011;13339;50.840;4.346;2023-04-24T11:40:18;11.77;;;8.00;;
25409;SDS011;13339;50.840;4.346;2023-04-24T11:42:48;10.20;;;6.23;;
25409;SDS011;13339;50.840;4.346;2023-04-24T11:45:22;7.93;;;6.13;;
25409;SDS011;13339;50.840;4.346;2023-04-24T11:47:48;10.63;;;6.13;;
25409;SDS011;13339;50.840;4.346;2023-04-24T11:50:15;11.63;;;5.90;;
25409;SDS011;13339;50.840;4.346;2023-04-24T11:52:43;12.80;;;6.70;;
25409;SDS011;13339;50.840;4.346;2023-04-24T11:55:31;14.47;;;7.50;;
25409;SDS011;13339;50.840;4.346;2023-04-24T11:57:56;11.93;;;6.83;;
25409;SDS011;13339;50.840;4.346;2023-04-24T12:00:24;9.27;;;6.57;;
25409;SDS011;13339;50.840;4.346;2023-04-24T12:02:51;11.57;;;6.57;;
25409;SDS011;13339;50.840;4.346;2023-04-24T12:05:29;9.60;;;6.63;;
25409;SDS011;13339;50.840;4.346;2023-04-24T12:07:56;12.93;;;7.07;;
25409;SDS011;13339;50.840;4.346;2023-04-24T12:10:22;9.30;;;7.10;;
25409;SDS011;13339;50.840;4.346;2023-04-24T12:12:49;11.20;;;7.13;;
25409;SDS011;13339;50.840;4.346;2023-04-24T12:15:17;11.57;;;7.33;;
25409;SDS011;13339;50.840;4.346;2023-04-24T12:17:44;15.07;;;7.37;;
25409;SDS011;13339;50.840;4.346;2023-04-24T12:20:10;9.87;;;7.03;;
25409;SDS011;13339;50.840;4.346;2023-04-24T12:25:15;11.03;;;6.57;;
25409;SDS011;13339;50.840;4.346;2023-04-24T12:27:43;10.10;;;6.67;;
25409;SDS011;13339;50.840;4.346;2023-04-24T12:30:10;12.00;;;6.80;;
25409;SDS011;13339;50.840;4.346;2023-04-24T12:32:48;11.00;;;7.10;;
25409;SDS011;13339;50.840;4.346;2023-04-24T12:35:22;13.63;;;7.03;;
25409;SDS011;13339;50.840;4.346;2023-04-24T12:37:51;7.60;;;5.60;;
25409;SDS011;13339;50.840;4.346;2023-04-24T12:40:17;9.00;;;6.07;;
25409;SDS011;13339;50.840;4.346;2023-04-24T12:42:47;8.93;;;5.70;;
25409;SDS011;13339;50.840;4.346;2023-04-24T12:45:15;15.57;;;7.37;;
25409;SDS011;13339;50.840;4.346;2023-04-24T12:47:42;9.63;;;5.97;;
25409;SDS011;13339;50.840;4.346;2023-04-24T12:50:09;9.97;;;5.97;;
25409;SDS011;13339;50.840;4.346;2023-04-24T12:52:36;7.93;;;5.30;;
25409;SDS011;13339;50.840;4.346;2023-04-24T12:55:02;10.17;;;6.53;;
25409;SDS011;13339;50.840;4.346;2023-04-24T12:57:29;11.07;;;6.00;;
25409;SDS011;13339;50.840;4.346;2023-04-24T12:59:56;8.93;;;5.63;;
25409;SDS011;13339;50.840;4.346;2023-04-24T13:02:27;12.13;;;5.60;;
25409;SDS011;13339;50.840;4.346;2023-04-24T13:04:57;9.03;;;5.53;;
25409;SDS011;13339;50.840;4.346;2023-04-24T13:07:23;9.03;;;5.73;;
25409;SDS011;13339;50.840;4.346;2023-04-24T13:09:49;8.17;;;5.13;;
25409;SDS011;13339;50.840;4.346;2023-04-24T13:12:15;7.87;;;5.10;;
25409;SDS011;13339;50.840;4.346;2023-04-24T13:14:41;11.23;;;4.60;;
25409;SDS011;13339;50.840;4.346;2023-04-24T13:17:07;6.63;;;4.40;;
25409;SDS011;13339;50.840;4.346;2023-04-24T13:19:36;7.67;;;4.93;;
25409;SDS011;13339;50.840;4.346;2023-04-24T13:22:03;7.13;;;4.20;;
25409;SDS011;13339;50.840;4.346;2023-04-24T13:24:29;8.40;;;4.13;;
25409;SDS011;13339;50.840;4.346;2023-04-24T13:26:56;9.63;;;4.70;;
25409;SDS011;13339;50.840;4.346;2023-04-24T13:29:22;8.60;;;4.23;;
25409;SDS011;13339;50.840;4.346;2023-04-24T13:31:50;8.67;;;4.33;;
25409;SDS011;13339;50.840;4.346;2023-04-24T13:34:16;12.00;;;4.63;;
25409;SDS011;13339;50.840;4.346;2023-04-24T13:36:42;6.60;;;4.07;;
25409;SDS011;13339;50.840;4.346;2023-04-24T13:39:08;6.47;;;4.17;;
25409;SDS011;13339;50.840;4.346;2023-04-24T13:41:35;7.47;;;3.90;;
25409;SDS011;13339;50.840;4.346;2023-04-24T13:44:01;8.17;;;4.33;;
25409;SDS011;13339;50.840;4.346;2023-04-24T13:46:27;8.47;;;3.97;;
25409;SDS011;13339;50.840;4.346;2023-04-24T13:48:53;8.67;;;4.13;;
25409;SDS011;13339;50.840;4.346;2023-04-24T13:51:19;6.80;;;3.77;;
25409;SDS011;13339;50.840;4.346;2023-04-24T13:53:45;10.03;;;3.83;;
25409;SDS011;13339;50.840;4.346;2023-04-24T13:56:12;9.67;;;4.43;;
25409;SDS011;13339;50.840;4.346;2023-04-24T13:58:39;6.67;;;4.03;;
25409;SDS011;13339;50.840;4.346;2023-04-24T14:01:04;8.87;;;3.50;;
25409;SDS011;13339;50.840;4.346;2023-04-24T14:03:30;6.13;;;3.40;;
25409;SDS011;13339;50.840;4.346;2023-04-24T14:05:56;9.73;;;3.50;;
25409;SDS011;13339;50.840;4.346;2023-04-24T14:08:22;9.00;;;3.90;;
25409;SDS011;13339;50.840;4.346;2023-04-24T14:10:48;6.73;;;3.40;;
25409;SDS011;13339;50.840;4.346;2023-04-24T14:13:13;5.53;;;2.50;;
25409;SDS011;13339;50.840;4.346;2023-04-24T14:15:39;5.57;;;2.80;;
25409;SDS011;13339;50.840;4.346;2023-04-24T14:18:05;4.93;;;2.83;;
25409;SDS011;13339;50.840;4.346;2023-04-24T14:20:31;5.87;;;2.50;;
25409;SDS011;13339;50.840;4.346;2023-04-24T14:22:57;7.43;;;2.87;;
25409;SDS011;13339;50.840;4.346;2023-04-24T14:25:25;9.13;;;3.50;;
25409;SDS011;13339;50.840;4.346;2023-04-24T14:27:51;6.60;;;3.03;;
25409;SDS011;13339;50.840;4.346;2023-04-24T14:30:17;3.77;;;2.63;;
25409;SDS011;13339;50.840;4.346;2023-04-24T14:32:43;5.87;;;3.13;;
25409;SDS011;13339;50.840;4.346;2023-04-24T14:35:09;4.93;;;2.73;;
25409;SDS011;13339;50.840;4.346;2023-04-24T14:37:35;9.20;;;3.47;;
25409;SDS011;13339;50.840;4.346;2023-04-24T14:40:02;3.73;;;2.80;;